Time;durP1;ratioP1;P1;durP2;ratioP2;P2;SDS_P1;SDS_P2;PMS_P1;PMS_P2;Temp;Humidity;BMP_temperature;BMP_pressure;BME280_temperature;BME280_humidity;BME280_pressure;Samples;Min_cycle;Max_cycle;Signal;HPM_P1;HPM_P2
2023/12/01 00:00:18;;;;;;;25.73;15.18;;;5.00;59.40;;;;;;5035981;28;20077;-35
2023/12/01 00:02:45;;;;;;;31.95;18.83;;;4.90;59.40;;;;;;5037556;28;20076;-35
2023/12/01 00:05:14;;;;;;;29.17;17.52;;;4.90;59.50;;;;;;5035999;28;20061;-37
2023/12/01 00:07:41;;;;;;;31.73;17.77;;;4.80;59.50;;;;;;5041537;28;20053;-36
2023/12/01 00:10:10;;;;;;;30.52;17.23;;;4.70;59.50;;;;;;5038457;28;20045;-37
2023/12/01 00:12:38;;;;;;;29.05;17.20;;;4.60;59.50;;;;;;5040868;28;20052;-35
2023/12/01 00:15:06;;;;;;;28.98;18.05;;;4.50;59.40;;;;;;5037856;28;20072;-36
2023/12/01 00:17:33;;;;;;;56.83;17.00;;;4.40;59.40;;;;;;5035622;28;20053;-35
2023/12/01 00:20:01;;;;;;;72.53;19.15;;;4.30;59.20;;;;;;5038874;28;20498;-36
2023/12/01 00:22:29;;;;;;;338.00;24.67;;;4.20;59.10;;;;;;5036529;28;20509;-34
2023/12/01 00:24:57;;;;;;;128.52;19.42;;;4.00;59.00;;;;;;5033718;28;20053;-37
2023/12/01 00:27:24;;;;;;;78.05;18.17;;;3.90;59.20;;;;;;5038618;28;20045;-37
2023/12/01 00:29:51;;;;;;;483.70;27.88;;;3.80;59.30;;;;;;5036014;28;20408;-34
2023/12/01 00:32:18;;;;;;;350.70;23.27;;;3.70;59.50;;;;;;5034461;28;20057;-35
2023/12/01 00:34:45;;;;;;;126.40;19.42;;;3.60;59.60;;;;;;5034665;28;20058;-35
2023/12/01 00:37:16;;;;;;;382.15;24.38;;;3.60;59.80;;;;;;5040750;28;20064;-35
2023/12/01 00:39:44;;;;;;;189.65;20.48;;;3.50;60.00;;;;;;5030611;28;20401;-35
2023/12/01 00:42:13;;;;;;;224.93;20.45;;;3.50;60.20;;;;;;5039651;28;20063;-36
2023/12/01 00:44:40;;;;;;;104.53;18.92;;;3.50;60.40;;;;;;5032866;28;20061;-35
2023/12/01 00:47:08;;;;;;;218.27;21.17;;;3.50;60.50;;;;;;5036610;28;20049;-35
2023/12/01 00:49:36;;;;;;;206.18;20.35;;;3.40;60.60;;;;;;5040064;28;20049;-34
2023/12/01 00:52:04;;;;;;;88.30;19.00;;;3.40;60.70;;;;;;5034594;28;20057;-36
2023/12/01 00:54:32;;;;;;;91.20;19.15;;;3.40;60.80;;;;;;5037368;28;20057;-34
2023/12/01 00:57:01;;;;;;;101.43;19.17;;;3.40;60.90;;;;;;5035694;28;20052;-34
2023/12/01 00:59:29;;;;;;;111.72;18.23;;;3.40;61.10;;;;;;5036219;28;20061;-35
2023/12/01 01:01:57;;;;;;;95.28;19.25;;;3.40;61.30;;;;;;5037650;28;20520;-35
2023/12/01 01:04:24;;;;;;;219.68;22.65;;;3.40;61.30;;;;;;5038736;28;20054;-34
2023/12/01 01:06:51;;;;;;;214.07;22.00;;;3.40;61.30;;;;;;5038857;28;20044;-35
2023/12/01 01:09:19;;;;;;;351.67;26.60;;;3.40;61.40;;;;;;5034221;28;20053;-35
2023/12/01 01:11:46;;;;;;;110.15;22.25;;;3.40;61.50;;;;;;5036233;28;20060;-35
2023/12/01 01:14:15;;;;;;;138.43;22.80;;;3.40;61.50;;;;;;5035511;28;20072;-35
2023/12/01 01:16:42;;;;;;;213.10;23.67;;;3.40;61.50;;;;;;5031247;28;20046;-35
2023/12/01 01:19:09;;;;;;;130.35;21.90;;;3.40;61.60;;;;;;5033414;28;20054;-35
2023/12/01 01:21:37;;;;;;;92.43;21.27;;;3.40;62.30;;;;;;5035325;28;20329;-36
2023/12/01 01:24:04;;;;;;;36.42;19.02;;;3.40;61.60;;;;;;5037794;28;20049;-37
2023/12/01 01:26:31;;;;;;;43.20;19.48;;;3.40;61.60;;;;;;5038785;28;20056;-35
2023/12/01 01:28:59;;;;;;;159.27;21.77;;;3.50;61.80;;;;;;5040058;28;20053;-34
2023/12/01 01:31:27;;;;;;;275.25;25.70;;;3.50;62.00;;;;;;5041152;28;20060;-35
2023/12/01 01:33:55;;;;;;;119.97;20.60;;;3.50;62.00;;;;;;5043006;28;20061;-35
2023/12/01 01:36:22;;;;;;;160.27;20.77;;;3.50;62.00;;;;;;5036876;28;20064;-35
2023/12/01 01:38:50;;;;;;;122.45;21.35;;;3.50;61.90;;;;;;5042596;28;20060;-37
2023/12/01 01:41:17;;;;;;;93.07;21.15;;;3.50;62.00;;;;;;5036818;28;20048;-34
2023/12/01 01:43:44;;;;;;;65.22;20.20;;;3.50;61.90;;;;;;5040660;28;20425;-34
2023/12/01 01:46:12;;;;;;;124.45;22.70;;;3.50;61.90;;;;;;5036776;28;20052;-34
2023/12/01 01:48:42;;;;;;;137.95;22.08;;;3.60;62.10;;;;;;5043687;28;20064;-35
2023/12/01 01:51:10;;;;;;;225.05;22.88;;;3.60;62.00;;;;;;5039349;28;20052;-36
2023/12/01 01:53:38;;;;;;;54.58;20.80;;;3.60;61.90;;;;;;5037857;28;20061;-35
2023/12/01 01:56:07;;;;;;;43.85;18.70;;;3.60;61.80;;;;;;5036685;28;20041;-35
2023/12/01 01:58:34;;;;;;;58.50;20.02;;;3.70;61.80;;;;;;5040184;28;20062;-34
2023/12/01 02:01:01;;;;;;;59.55;21.65;;;3.70;61.70;;;;;;5038473;28;20060;-35
2023/12/01 02:03:28;;;;;;;73.05;21.25;;;3.70;61.70;;;;;;5037988;28;20053;-34
2023/12/01 02:05:57;;;;;;;67.25;21.20;;;3.70;61.70;;;;;;5033682;28;20057;-36
2023/12/01 02:08:25;;;;;;;38.60;19.20;;;3.70;61.60;;;;;;5034157;28;20053;-34
2023/12/01 02:10:53;;;;;;;290.27;25.42;;;3.70;61.60;;;;;;5038064;28;20056;-34
2023/12/01 02:13:21;;;;;;;294.73;26.83;;;3.70;62.30;;;;;;5038346;28;20060;-34
2023/12/01 02:15:48;;;;;;;247.52;25.95;;;3.70;61.50;;;;;;5035972;28;20138;-34
2023/12/01 02:18:24;;;;;;;73.50;21.77;;;3.70;61.50;;;;;;5039289;28;20053;-34
2023/12/01 02:20:52;;;;;;;43.38;20.50;;;3.70;61.60;;;;;;5040153;28;20497;-34
2023/12/01 02:23:21;;;;;;;126.90;22.25;;;3.70;61.80;;;;;;5039459;28;20053;-35
2023/12/01 02:25:49;;;;;;;53.05;20.98;;;3.70;62.00;;;;;;5040559;28;20053;-34
2023/12/01 02:28:17;;;;;;;102.97;22.55;;;3.70;62.00;;;;;;5034334;28;20390;-34
2023/12/01 02:30:50;;;;;;;45.90;21.90;;;3.70;61.90;;;;;;5038591;28;20500;-34
2023/12/01 02:33:18;;;;;;;81.90;24.10;;;3.80;61.80;;;;;;5036063;28;20063;-34
2023/12/01 02:35:46;;;;;;;104.40;26.08;;;3.80;61.80;;;;;;5036167;28;20421;-34
2023/12/01 02:38:14;;;;;;;88.53;23.83;;;3.70;61.50;;;;;;5033711;28;20045;-34
2023/12/01 02:40:43;;;;;;;84.72;23.58;;;3.80;61.40;;;;;;5044375;28;20068;-35
2023/12/01 02:43:12;;;;;;;49.95;21.55;;;3.70;61.30;;;;;;5044207;28;20064;-34
2023/12/01 02:45:39;;;;;;;46.35;21.85;;;3.70;61.50;;;;;;5042894;28;20052;-35
2023/12/01 02:48:07;;;;;;;43.53;22.45;;;3.70;61.50;;;;;;5045809;28;20052;-34
2023/12/01 02:50:34;;;;;;;46.97;22.80;;;3.70;61.50;;;;;;5038988;28;20053;-34
2023/12/01 02:53:02;;;;;;;44.00;21.77;;;3.70;61.60;;;;;;5041954;28;20064;-34
2023/12/01 02:55:30;;;;;;;46.88;21.95;;;3.70;61.80;;;;;;5045378;28;20084;-37
2023/12/01 02:57:58;;;;;;;44.00;20.65;;;3.70;61.90;;;;;;5043899;28;20049;-34
2023/12/01 03:00:26;;;;;;;44.58;20.52;;;3.70;61.80;;;;;;5043615;28;20060;-35
2023/12/01 03:02:53;;;;;;;44.53;21.05;;;3.80;61.80;;;;;;5043427;28;20057;-35
2023/12/01 03:05:21;;;;;;;38.45;18.90;;;3.70;61.70;;;;;;5037668;28;20057;-34
2023/12/01 03:07:49;;;;;;;46.35;20.80;;;3.80;61.60;;;;;;5045005;28;20045;-41
2023/12/01 03:10:17;;;;;;;37.88;19.20;;;3.70;61.40;;;;;;5043916;28;20060;-40
2023/12/01 03:12:45;;;;;;;38.47;18.67;;;3.70;61.50;;;;;;5044614;28;20052;-44
2023/12/01 03:15:17;;;;;;;35.60;19.15;;;3.80;61.80;;;;;;5041791;28;20061;-42
2023/12/01 03:17:45;;;;;;;33.22;17.60;;;3.80;61.90;;;;;;5042728;28;20056;-43
2023/12/01 03:20:14;;;;;;;33.72;17.33;;;3.80;62.00;;;;;;5040191;28;20053;-44
2023/12/01 03:22:44;;;;;;;31.70;17.20;;;3.80;62.00;;;;;;5046394;28;20061;-43
2023/12/01 03:25:11;;;;;;;36.33;19.20;;;3.90;61.90;;;;;;5042906;28;20124;-40
2023/12/01 03:27:42;;;;;;;38.20;19.70;;;3.90;61.80;;;;;;5042519;28;20050;-42
2023/12/01 03:30:16;;;;;;;39.70;19.80;;;3.90;61.70;;;;;;5043067;28;20056;-42
2023/12/01 03:32:47;;;;;;;35.42;18.05;;;3.90;61.60;;;;;;5042574;28;20053;-44
2023/12/01 03:35:15;;;;;;;34.10;18.02;;;4.00;61.60;;;;;;5045171;28;20068;-44
2023/12/01 03:37:43;;;;;;;35.30;18.60;;;4.00;61.50;;;;;;5042805;28;20053;-42
2023/12/01 03:40:12;;;;;;;38.35;18.88;;;4.00;61.40;;;;;;5045203;28;20052;-45
2023/12/01 03:42:42;;;;;;;38.25;19.65;;;4.00;61.30;;;;;;5040938;28;20055;-41
2023/12/01 03:45:12;;;;;;;39.13;19.30;;;4.00;61.20;;;;;;5044233;28;20060;-41
2023/12/01 03:47:40;;;;;;;38.97;19.40;;;4.00;61.00;;;;;;5046378;28;20551;-39
2023/12/01 03:50:11;;;;;;;35.83;19.13;;;4.00;61.00;;;;;;5045007;28;20061;-41
2023/12/01 03:52:41;;;;;;;37.95;18.30;;;4.00;61.10;;;;;;5047318;28;20049;-44
2023/12/01 03:55:09;;;;;;;38.08;19.63;;;4.00;61.10;;;;;;5045203;28;20045;-41
2023/12/01 03:57:36;;;;;;;36.95;19.58;;;3.90;61.00;;;;;;5043621;28;20048;-44
2023/12/01 04:00:08;;;;;;;34.22;18.05;;;4.00;61.20;;;;;;5043073;28;20057;-43
2023/12/01 04:02:38;;;;;;;33.28;17.90;;;4.00;61.30;;;;;;5028414;28;20049;-44
2023/12/01 04:05:06;;;;;;;35.55;18.48;;;3.90;61.20;;;;;;5023038;28;20068;-45
2023/12/01 04:07:35;;;;;;;34.17;18.13;;;3.90;61.20;;;;;;5024956;28;20061;-45
2023/12/01 04:10:10;;;;;;;35.88;18.33;;;4.00;61.30;;;;;;5025613;28;20053;-43
2023/12/01 04:12:40;;;;;;;33.88;19.08;;;4.00;61.20;;;;;;5021767;28;20061;-43
2023/12/01 04:15:12;;;;;;;35.13;17.92;;;3.90;61.00;;;;;;5017728;28;20506;-41
2023/12/01 04:17:42;;;;;;;34.55;18.08;;;3.90;61.10;;;;;;5023722;28;20064;-35
2023/12/01 04:20:20;;;;;;;35.58;18.05;;;3.90;61.20;;;;;;5021401;28;20053;-37
2023/12/01 04:22:51;;;;;;;37.38;18.13;;;4.00;61.20;;;;;;5023182;28;20421;-36
2023/12/01 04:25:18;;;;;;;33.50;17.90;;;4.00;61.20;;;;;;5027921;28;20057;-36
2023/12/01 04:27:46;;;;;;;35.10;18.85;;;4.00;61.20;;;;;;5013820;28;20041;-34
2023/12/01 04:30:15;;;;;;;36.88;19.52;;;3.90;61.10;;;;;;5020716;28;20045;-34
2023/12/01 04:32:43;;;;;;;35.10;19.77;;;3.90;61.10;;;;;;5021387;28;20057;-34
2023/12/01 04:35:12;;;;;;;37.10;18.42;;;3.90;61.10;;;;;;5019897;28;20046;-34
2023/12/01 04:37:41;;;;;;;37.05;19.60;;;3.90;61.20;;;;;;5023404;28;20042;-36
2023/12/01 04:40:14;;;;;;;34.40;18.88;;;3.90;61.30;;;;;;5017901;28;20054;-37
2023/12/01 04:42:44;;;;;;;38.10;19.58;;;3.90;61.40;;;;;;5018801;28;20053;-34
2023/12/01 04:45:14;;;;;;;38.88;19.27;;;3.90;61.50;;;;;;5014104;28;20045;-35
2023/12/01 04:47:42;;;;;;;43.45;21.40;;;3.90;61.60;;;;;;5019182;28;20053;-35
2023/12/01 04:50:13;;;;;;;41.40;20.58;;;3.90;61.60;;;;;;5013720;28;20604;-37
2023/12/01 04:52:44;;;;;;;39.47;20.42;;;3.90;61.50;;;;;;5016836;28;20053;-34
2023/12/01 04:55:14;;;;;;;43.05;20.90;;;3.90;61.40;;;;;;5023877;28;20064;-34
2023/12/01 04:57:42;;;;;;;40.55;20.75;;;3.90;61.20;;;;;;5024820;28;20053;-34
2023/12/01 05:00:19;;;;;;;39.97;20.38;;;3.90;61.20;;;;;;5016231;28;20506;-37
2023/12/01 05:02:48;;;;;;;38.72;20.98;;;3.80;61.20;;;;;;5019051;28;20049;-34
2023/12/01 05:05:16;;;;;;;41.60;21.30;;;3.80;61.40;;;;;;5024831;28;20050;-34
2023/12/01 05:07:44;;;;;;;40.17;20.50;;;3.70;61.40;;;;;;5023691;28;20045;-35
2023/12/01 05:10:15;;;;;;;39.90;20.98;;;3.80;61.60;;;;;;5015824;28;20049;-34
2023/12/01 05:12:44;;;;;;;40.00;21.02;;;3.80;61.70;;;;;;5021630;28;20068;-35
2023/12/01 05:15:16;;;;;;;42.08;21.67;;;3.80;61.70;;;;;;5017205;28;20049;-37
2023/12/01 05:17:45;;;;;;;45.58;23.25;;;3.80;61.80;;;;;;5020136;28;20077;-34
2023/12/01 05:20:16;;;;;;;40.97;21.27;;;3.70;61.70;;;;;;5027545;28;20050;-35
2023/12/01 05:22:45;;;;;;;39.92;20.98;;;3.70;61.80;;;;;;5027685;28;20421;-36
2023/12/01 05:25:17;;;;;;;42.03;21.00;;;3.70;61.90;;;;;;5019915;28;20400;-34
2023/12/01 05:27:46;;;;;;;40.03;21.02;;;3.70;61.90;;;;;;5021439;28;20056;-43
2023/12/01 05:30:14;;;;;;;41.92;22.15;;;3.70;61.90;;;;;;5024531;28;20057;-39
2023/12/01 05:32:43;;;;;;;41.33;21.23;;;3.70;62.00;;;;;;5025348;28;20052;-42
2023/12/01 05:35:12;;;;;;;39.22;21.48;;;3.70;62.00;;;;;;5025935;28;20053;-43
2023/12/01 05:37:40;;;;;;;41.10;21.00;;;3.60;61.90;;;;;;5020571;28;20057;-39
2023/12/01 05:40:09;;;;;;;41.22;21.27;;;3.60;62.00;;;;;;5023206;28;20049;-42
2023/12/01 05:42:41;;;;;;;38.92;20.17;;;3.60;62.10;;;;;;5023553;28;20497;-43
2023/12/01 05:45:11;;;;;;;36.47;20.13;;;3.60;62.20;;;;;;5024998;28;20053;-40
2023/12/01 05:47:43;;;;;;;39.22;20.35;;;3.60;62.30;;;;;;5020624;28;20426;-43
2023/12/01 05:50:23;;;;;;;42.08;21.05;;;3.70;62.40;;;;;;5025659;28;20568;-45
2023/12/01 05:52:51;;;;;;;38.63;20.60;;;3.70;62.40;;;;;;5022723;28;20053;-42
2023/12/01 05:55:20;;;;;;;36.13;20.45;;;3.70;62.40;;;;;;5020374;28;20049;-46
2023/12/01 05:57:50;;;;;;;39.30;20.25;;;3.70;62.40;;;;;;5023615;28;20049;-45
2023/12/01 06:00:19;;;;;;;36.72;20.20;;;3.70;62.30;;;;;;5022558;28;20072;-44
2023/12/01 06:02:50;;;;;;;42.33;21.50;;;3.70;62.20;;;;;;5021762;28;20049;-42
2023/12/01 06:05:18;;;;;;;34.17;19.13;;;3.60;62.10;;;;;;5018892;28;20061;-39
2023/12/01 06:07:49;;;;;;;32.60;18.58;;;3.60;62.10;;;;;;5027357;28;20057;-45
2023/12/01 06:10:17;;;;;;;34.45;19.33;;;3.70;62.30;;;;;;5023325;28;20502;-44
2023/12/01 06:12:45;;;;;;;34.58;18.38;;;3.60;62.30;;;;;;5022221;28;21627;-41
2023/12/01 06:15:16;;;;;;;34.30;18.80;;;3.70;63.10;;;;;;5024527;28;20516;-41
2023/12/01 06:17:44;;;;;;;34.78;18.20;;;3.70;62.40;;;;;;5024682;28;20064;-45
2023/12/01 06:20:18;;;;;;;34.95;18.80;;;3.80;63.20;;;;;;5026719;28;20046;-43
2023/12/01 06:22:47;;;;;;;35.47;19.33;;;3.80;62.40;;;;;;5026135;28;20060;-41
2023/12/01 06:25:14;;;;;;;34.25;19.27;;;3.80;62.10;;;;;;5018494;28;20422;-39
2023/12/01 06:27:42;;;;;;;35.53;18.70;;;3.90;62.00;;;;;;5021797;28;20421;-42
2023/12/01 06:30:11;;;;;;;34.78;18.40;;;3.90;61.90;;;;;;5019808;28;20046;-42
2023/12/01 06:32:47;;;;;;;33.47;18.48;;;3.90;61.70;;;;;;5022724;28;20061;-45
2023/12/01 06:35:15;;;;;;;33.15;18.60;;;3.90;61.80;;;;;;5017260;28;20478;-42
2023/12/01 06:37:44;;;;;;;36.05;19.33;;;3.90;61.70;;;;;;5018498;28;20418;-44
2023/12/01 06:40:13;;;;;;;35.40;20.10;;;3.90;61.50;;;;;;5021602;28;20486;-44
2023/12/01 06:42:44;;;;;;;33.28;18.92;;;3.90;61.40;;;;;;5020459;28;20057;-44
2023/12/01 06:45:13;;;;;;;37.63;19.05;;;4.00;61.40;;;;;;5020231;28;20926;-43
2023/12/01 06:47:45;;;;;;;36.55;20.77;;;4.00;61.30;;;;;;5022117;28;20057;-45
2023/12/01 06:50:15;;;;;;;36.58;19.83;;;4.00;61.00;;;;;;5020122;28;20049;-42
2023/12/01 06:52:43;;;;;;;36.03;20.00;;;4.00;60.80;;;;;;5020207;28;20049;-45
2023/12/01 06:55:10;;;;;;;38.75;21.02;;;4.00;60.80;;;;;;5021660;28;20045;-45
2023/12/01 06:57:38;;;;;;;36.83;20.20;;;4.00;60.90;;;;;;5022435;28;20054;-43
2023/12/01 07:00:08;;;;;;;34.20;19.83;;;4.00;61.00;;;;;;5015287;28;20406;-43
2023/12/01 07:02:37;;;;;;;38.17;21.58;;;4.00;60.90;;;;;;5017039;28;20058;-46
2023/12/01 07:05:07;;;;;;;35.53;20.50;;;4.00;60.80;;;;;;5020767;28;20065;-43
2023/12/01 07:07:37;;;;;;;38.78;21.17;;;4.00;60.70;;;;;;5018918;28;20424;-43
2023/12/01 07:10:06;;;;;;;36.42;20.50;;;4.00;60.60;;;;;;5021516;28;20053;-47
2023/12/01 07:12:34;;;;;;;34.00;18.23;;;3.90;60.00;;;;;;5022537;28;20056;-44
2023/12/01 07:15:02;;;;;;;32.47;18.33;;;3.90;60.10;;;;;;5020905;28;20053;-44
2023/12/01 07:17:30;;;;;;;32.55;18.25;;;3.90;60.50;;;;;;5018693;28;20072;-42
2023/12/01 07:19:57;;;;;;;31.27;16.75;;;3.90;60.50;;;;;;5024062;28;20053;-42
2023/12/01 07:22:26;;;;;;;29.40;16.08;;;3.90;60.70;;;;;;5019229;28;20667;-45
2023/12/01 07:24:54;;;;;;;29.48;16.52;;;3.90;60.90;;;;;;5016960;28;20525;-44
2023/12/01 07:27:25;;;;;;;27.42;16.10;;;3.90;60.90;;;;;;5020280;28;20046;-44
2023/12/01 07:29:52;;;;;;;29.75;16.60;;;3.90;60.90;;;;;;5016948;28;20045;-43
2023/12/01 07:32:20;;;;;;;27.27;15.65;;;4.00;60.80;;;;;;5022300;28;20057;-43
2023/12/01 07:34:47;;;;;;;26.85;14.73;;;4.00;60.40;;;;;;5011727;28;20049;-43
2023/12/01 07:37:14;;;;;;;27.70;14.60;;;4.00;60.20;;;;;;5018351;28;20049;-44
2023/12/01 07:39:42;;;;;;;25.40;14.02;;;4.00;59.80;;;;;;5017386;28;20053;-43
2023/12/01 07:42:10;;;;;;;24.38;14.27;;;3.90;59.60;;;;;;5022675;28;20049;-44
2023/12/01 07:44:38;;;;;;;27.23;15.57;;;3.90;59.60;;;;;;5021173;28;20053;-44
2023/12/01 07:47:08;;;;;;;24.67;14.40;;;3.90;59.70;;;;;;5018220;28;20049;-42
2023/12/01 07:49:35;;;;;;;25.50;14.15;;;3.90;59.60;;;;;;5022876;28;20069;-43
2023/12/01 07:52:06;;;;;;;25.05;14.40;;;3.90;59.60;;;;;;5023773;28;20512;-43
2023/12/01 07:54:34;;;;;;;27.77;15.02;;;3.90;59.70;;;;;;5022207;28;20528;-42
2023/12/01 07:57:02;;;;;;;27.17;14.77;;;3.90;59.80;;;;;;5023177;28;20057;-46
2023/12/01 07:59:30;;;;;;;28.52;14.07;;;3.90;59.80;;;;;;5025815;28;20080;-41
2023/12/01 08:01:58;;;;;;;25.98;13.52;;;3.90;59.70;;;;;;5020723;28;20060;-47
2023/12/01 08:04:26;;;;;;;25.23;14.27;;;3.90;59.80;;;;;;5022246;28;20057;-44
2023/12/01 08:06:55;;;;;;;25.70;13.32;;;3.80;59.50;;;;;;5016885;28;20441;-42
2023/12/01 08:09:23;;;;;;;24.38;14.68;;;3.80;59.50;;;;;;5019298;28;20041;-43
2023/12/01 08:11:50;;;;;;;23.40;13.90;;;3.80;59.30;;;;;;5024129;28;20445;-45
2023/12/01 08:14:19;;;;;;;25.75;14.07;;;3.80;59.40;;;;;;5023004;28;20413;-44
2023/12/01 08:16:46;;;;;;;26.38;14.27;;;3.80;59.60;;;;;;5021095;28;20057;-43
2023/12/01 08:19:13;;;;;;;22.70;13.05;;;3.70;59.60;;;;;;5023936;28;20429;-46
2023/12/01 08:21:40;;;;;;;25.02;13.57;;;3.70;59.70;;;;;;5026176;28;20058;-40
2023/12/01 08:24:07;;;;;;;24.05;13.98;;;3.70;59.70;;;;;;5023630;28;20053;-47
2023/12/01 08:26:35;;;;;;;24.20;13.25;;;3.70;59.40;;;;;;5019337;28;20053;-42
2023/12/01 08:29:02;;;;;;;22.90;13.10;;;3.70;59.40;;;;;;5020277;28;20050;-41
2023/12/01 08:31:31;;;;;;;25.20;13.45;;;3.70;59.40;;;;;;5019014;28;20055;-43
2023/12/01 08:33:59;;;;;;;23.63;13.80;;;3.70;59.60;;;;;;5017499;28;20060;-39
2023/12/01 08:36:26;;;;;;;24.50;12.38;;;3.70;59.70;;;;;;5022517;28;20058;-43
2023/12/01 08:38:53;;;;;;;22.92;12.23;;;3.70;59.60;;;;;;5022372;28;20054;-44
2023/12/01 08:41:21;;;;;;;22.90;13.02;;;3.70;59.60;;;;;;5027391;28;20068;-43
2023/12/01 08:43:48;;;;;;;23.17;12.77;;;3.80;59.60;;;;;;5025435;28;20049;-40
2023/12/01 08:46:15;;;;;;;19.02;11.35;;;3.80;59.60;;;;;;5024340;28;20057;-43
2023/12/01 08:48:44;;;;;;;23.88;12.75;;;3.80;59.60;;;;;;5022813;28;20069;-42
2023/12/01 08:51:11;;;;;;;24.73;13.77;;;3.80;59.70;;;;;;5023527;28;20057;-44
2023/12/01 08:53:41;;;;;;;20.75;12.18;;;3.80;59.60;;;;;;5025103;28;20049;-42
2023/12/01 08:56:09;;;;;;;21.55;12.45;;;3.80;59.60;;;;;;5025171;28;20528;-43
2023/12/01 08:58:37;;;;;;;19.13;10.90;;;3.70;59.40;;;;;;5020728;28;21369;-43
2023/12/01 09:01:04;;;;;;;23.00;12.63;;;3.80;59.50;;;;;;5023196;28;20061;-44
2023/12/01 09:03:31;;;;;;;22.20;12.27;;;3.70;59.50;;;;;;5025247;28;20049;-44
2023/12/01 09:06:03;;;;;;;23.08;11.43;;;3.70;59.60;;;;;;5019729;28;20417;-44
2023/12/01 09:08:30;;;;;;;19.13;11.43;;;3.70;59.70;;;;;;5023170;28;20060;-44
2023/12/01 09:10:58;;;;;;;20.20;11.35;;;3.70;59.70;;;;;;5025364;28;20049;-44
2023/12/01 09:13:25;;;;;;;19.70;11.77;;;3.70;59.70;;;;;;5025094;28;20061;-46
2023/12/01 09:15:52;;;;;;;20.85;11.88;;;3.70;59.50;;;;;;5021908;28;20053;-44
2023/12/01 09:18:19;;;;;;;19.58;10.98;;;3.70;59.50;;;;;;5028939;28;20512;-43
2023/12/01 09:20:47;;;;;;;19.80;10.57;;;3.80;59.70;;;;;;5026719;28;20054;-43
2023/12/01 09:23:15;;;;;;;17.70;9.85;;;3.80;59.70;;;;;;5023481;28;20046;-43
2023/12/01 09:25:42;;;;;;;20.08;11.18;;;3.80;59.70;;;;;;5027779;28;20061;-43
2023/12/01 09:28:09;;;;;;;15.35;9.15;;;3.80;59.70;;;;;;5022743;28;20060;-45
2023/12/01 09:30:38;;;;;;;15.75;10.20;;;3.90;59.80;;;;;;5028311;28;20498;-46
2023/12/01 09:33:05;;;;;;;17.83;10.10;;;3.90;59.50;;;;;;5021373;28;20057;-44
2023/12/01 09:35:33;;;;;;;15.23;9.35;;;3.90;59.40;;;;;;5025393;28;20398;-44
2023/12/01 09:38:00;;;;;;;17.70;10.10;;;3.90;59.50;;;;;;5023213;28;20050;-44
2023/12/01 09:40:29;;;;;;;15.32;9.13;;;4.00;59.70;;;;;;5024857;28;20050;-45
2023/12/01 09:42:57;;;;;;;17.00;10.15;;;4.00;59.50;;;;;;5028487;28;20055;-44
2023/12/01 09:45:26;;;;;;;17.35;10.02;;;4.00;59.40;;;;;;5024944;28;20068;-44
2023/12/01 09:47:58;;;;;;;17.83;9.65;;;4.00;59.10;;;;;;5024600;28;20061;-45
2023/12/01 09:50:25;;;;;;;17.70;9.80;;;4.00;59.00;;;;;;5027398;28;20045;-43
2023/12/01 09:52:53;;;;;;;15.60;9.02;;;4.00;58.90;;;;;;5024520;28;20509;-44
2023/12/01 09:55:21;;;;;;;15.25;8.27;;;4.00;59.00;;;;;;5022830;28;20060;-44
2023/12/01 09:57:51;;;;;;;16.92;9.00;;;4.10;59.20;;;;;;5022379;28;20049;-43
2023/12/01 10:00:19;;;;;;;17.80;9.45;;;4.10;59.30;;;;;;5018714;28;20054;-43
2023/12/01 10:02:46;;;;;;;16.98;9.98;;;4.10;59.20;;;;;;5027154;28;20056;-44
2023/12/01 10:05:13;;;;;;;17.02;10.10;;;4.10;58.80;;;;;;5024977;28;20049;-44
2023/12/01 10:07:41;;;;;;;16.63;9.88;;;4.10;58.80;;;;;;5026582;28;20068;-44
2023/12/01 10:10:29;;;;;;;17.98;9.88;;;4.10;58.90;;;;;;5027739;28;20060;-42
2023/12/01 10:12:59;;;;;;;18.20;10.00;;;4.20;58.70;;;;;;5016910;28;20053;-42
2023/12/01 10:15:27;;;;;;;18.55;9.52;;;4.20;58.70;;;;;;5017930;28;20065;-45
2023/12/01 10:18:07;;;;;;;17.45;9.25;;;4.20;58.80;;;;;;5026165;28;20429;-42
2023/12/01 10:20:36;;;;;;;15.23;8.60;;;4.20;58.70;;;;;;5025632;28;20057;-44
2023/12/01 10:23:16;;;;;;;15.52;9.60;;;4.20;58.60;;;;;;5024726;28;20081;-45
2023/12/01 10:25:48;;;;;;;16.80;8.95;;;4.20;58.40;;;;;;5024470;28;20057;-44
2023/12/01 10:28:17;;;;;;;15.13;8.40;;;4.20;58.50;;;;;;5022419;28;20061;-43
2023/12/01 10:30:54;;;;;;;16.25;8.75;;;4.20;58.50;;;;;;5018250;28;20042;-45
2023/12/01 10:33:22;;;;;;;14.48;8.57;;;4.20;58.50;;;;;;5021107;28;20058;-42
2023/12/01 10:36:01;;;;;;;14.45;8.90;;;4.30;58.50;;;;;;5017076;28;20057;-43
2023/12/01 10:38:29;;;;;;;16.08;8.82;;;4.30;58.60;;;;;;5017663;28;20066;-44
2023/12/01 10:40:58;;;;;;;14.05;8.50;;;4.30;58.80;;;;;;5020356;28;20505;-45
2023/12/01 10:43:28;;;;;;;15.88;8.05;;;4.40;58.70;;;;;;5020759;28;20052;-43
2023/12/01 10:46:00;;;;;;;13.82;7.93;;;4.30;58.80;;;;;;5021921;28;20065;-44
2023/12/01 10:48:30;;;;;;;14.13;8.27;;;4.40;58.40;;;;;;5017046;28;20042;-43
2023/12/01 10:50:57;;;;;;;13.02;7.88;;;4.40;58.10;;;;;;5024152;28;20486;-43
2023/12/01 10:53:25;;;;;;;13.73;8.00;;;4.40;58.10;;;;;;5022015;28;20049;-45
2023/12/01 10:55:56;;;;;;;13.18;7.28;;;4.40;58.20;;;;;;5023816;28;20053;-43
2023/12/01 10:58:26;;;;;;;13.38;7.03;;;4.40;58.20;;;;;;5023459;28;20057;-45
2023/12/01 11:00:54;;;;;;;12.18;6.97;;;4.50;58.00;;;;;;5021267;28;20092;-44
2023/12/01 11:03:23;;;;;;;14.27;7.40;;;4.50;58.00;;;;;;5024931;28;20079;-43
2023/12/01 11:05:55;;;;;;;13.70;6.93;;;4.50;58.00;;;;;;5024042;28;20065;-44
2023/12/01 11:08:36;;;;;;;14.18;7.75;;;4.50;58.00;;;;;;5021901;28;20045;-43
2023/12/01 11:11:16;;;;;;;13.27;7.38;;;4.50;58.00;;;;;;5019570;28;20052;-45
2023/12/01 11:13:59;;;;;;;11.80;7.00;;;4.60;58.00;;;;;;5016311;28;20512;-45
2023/12/01 11:16:27;;;;;;;12.85;7.30;;;4.60;57.90;;;;;;5018000;28;20486;-44
2023/12/01 11:18:56;;;;;;;13.30;7.07;;;4.50;57.60;;;;;;5017348;28;20057;-46
2023/12/01 11:21:23;;;;;;;13.10;7.13;;;4.50;57.20;;;;;;5022148;28;20509;-45
2023/12/01 11:23:51;;;;;;;11.95;6.88;;;4.60;57.40;;;;;;5022961;28;20053;-43
2023/12/01 11:26:18;;;;;;;10.27;6.03;;;4.60;57.70;;;;;;5019096;28;20099;-43
2023/12/01 11:28:56;;;;;;;12.18;6.55;;;4.50;57.60;;;;;;5019849;28;20053;-43
2023/12/01 11:31:34;;;;;;;10.65;6.25;;;4.50;57.30;;;;;;5019280;28;20065;-43
2023/12/01 11:34:02;;;;;;;11.25;5.82;;;4.60;57.40;;;;;;5015395;28;20049;-44
2023/12/01 11:36:29;;;;;;;13.27;5.90;;;4.50;57.20;;;;;;5020580;28;20520;-43
2023/12/01 11:39:23;;;;;;;9.48;5.47;;;4.60;57.40;;;;;;5018104;28;20041;-44
2023/12/01 11:42:12;;;;;;;11.23;5.53;;;4.60;57.10;;;;;;5019716;28;20482;-45
2023/12/01 11:44:42;;;;;;;9.07;5.47;;;4.60;57.30;;;;;;5012049;28;20053;-43
2023/12/01 11:47:12;;;;;;;11.43;6.40;;;4.60;57.30;;;;;;5026282;28;20049;-46
2023/12/01 11:49:41;;;;;;;9.95;5.47;;;4.60;57.30;;;;;;5019699;28;20350;-47
2023/12/01 11:52:12;;;;;;;9.20;6.35;;;4.70;57.40;;;;;;5016752;28;20514;-44
2023/12/01 11:54:41;;;;;;;10.02;6.18;;;4.70;57.60;;;;;;5016672;28;20096;-45
2023/12/01 11:57:10;;;;;;;9.15;5.35;;;4.70;57.50;;;;;;5015943;28;20072;-43
2023/12/01 11:59:38;;;;;;;11.45;6.28;;;4.70;57.40;;;;;;5023903;28;20057;-44
2023/12/01 12:02:07;;;;;;;8.98;5.65;;;4.70;57.00;;;;;;5022109;28;20060;-43
2023/12/01 12:04:37;;;;;;;9.48;5.88;;;4.70;57.00;;;;;;5019798;28;20057;-45
2023/12/01 12:07:04;;;;;;;9.77;5.85;;;4.70;57.10;;;;;;5015253;28;20053;-43
2023/12/01 12:09:32;;;;;;;10.50;6.05;;;4.70;57.20;;;;;;5016184;28;20409;-43
2023/12/01 12:12:01;;;;;;;11.00;5.75;;;4.70;57.00;;;;;;5020793;28;20060;-44
2023/12/01 12:14:29;;;;;;;10.00;5.70;;;4.80;57.10;;;;;;5023946;28;20060;-43
2023/12/01 12:16:57;;;;;;;10.32;5.88;;;4.80;57.10;;;;;;5024367;28;20486;-43
2023/12/01 12:19:25;;;;;;;14.85;5.45;;;4.70;56.60;;;;;;5020355;28;20056;-43
2023/12/01 12:21:53;;;;;;;9.13;5.32;;;4.70;56.70;;;;;;5015540;28;20466;-46
2023/12/01 12:24:21;;;;;;;11.18;5.53;;;4.70;56.70;;;;;;5015683;28;20049;-45
2023/12/01 12:26:56;;;;;;;10.52;5.38;;;4.70;56.70;;;;;;5019273;28;20529;-44
2023/12/01 12:29:24;;;;;;;11.63;5.68;;;4.70;56.60;;;;;;5022628;28;20050;-43
2023/12/01 12:31:51;;;;;;;8.65;5.05;;;4.70;56.50;;;;;;5023201;28;20057;-42
2023/12/01 12:34:19;;;;;;;8.50;5.13;;;4.70;56.30;;;;;;5019083;28;20061;-44
2023/12/01 12:36:50;;;;;;;7.15;4.30;;;4.70;56.40;;;;;;5017250;28;20050;-43
2023/12/01 12:39:17;;;;;;;10.32;5.18;;;4.80;56.50;;;;;;5023498;28;20050;-44
2023/12/01 12:41:53;;;;;;;8.15;5.18;;;4.80;56.90;;;;;;5024428;28;20049;-44
2023/12/01 12:44:20;;;;;;;9.48;5.28;;;4.80;56.10;;;;;;5022258;28;20160;-41
2023/12/01 12:46:59;;;;;;;9.18;5.43;;;4.80;55.70;;;;;;5022274;28;20056;-44